Terminal Aerodrome Forecast
Issued by NWS Tuscon, AZ

Home | Current Version | Previous Version | Text Only | Print | Product List | Glossary On
Versions: 1 2 3 4 5 6 7 8 9 10 11 12 13 14 15 16
000
FTUS45 KTWC 050520
TAFDUG
TAF
KDUG 050520Z 0506/0606 11005KT P6SM VCSH SCT070 BKN100 OVC200
     FM050800 VRB05KT P6SM BKN100 OVC200
     FM051800 22006KT P6SM SCT090 BKN200
     FM052200 27008KT P6SM VCSH BKN070 OVC200
     FM060400 03005KT P6SM BKN090 BKN200=

USA.gov is the U.S. government's official web portal to all federal, state and local government web resources and services.